sensor_id;sensor_type;location;lat;lon;timestamp;P1;durP1;ratioP1;P2;durP2;ratioP2
54909;SDS011;63189;51.240;9.964;2024-02-26T00:01:56;2.03;;;1.35;;
54909;SDS011;63189;51.240;9.964;2024-02-26T00:04:22;1.83;;;1.40;;
54909;SDS011;63189;51.240;9.964;2024-02-26T00:06:47;2.67;;;1.38;;
54909;SDS011;63189;51.240;9.964;2024-02-26T00:09:15;1.92;;;1.30;;
54909;SDS011;63189;51.240;9.964;2024-02-26T00:11:40;2.22;;;1.40;;
54909;SDS011;63189;51.240;9.964;2024-02-26T00:14:06;5.18;;;2.90;;
54909;SDS011;63189;51.240;9.964;2024-02-26T00:16:31;5.80;;;3.47;;
54909;SDS011;63189;51.240;9.964;2024-02-26T00:18:56;5.28;;;3.05;;
54909;SDS011;63189;51.240;9.964;2024-02-26T00:21:22;4.60;;;3.33;;
54909;SDS011;63189;51.240;9.964;2024-02-26T00:23:49;3.83;;;2.40;;
54909;SDS011;63189;51.240;9.964;2024-02-26T00:26:15;3.95;;;2.33;;
54909;SDS011;63189;51.240;9.964;2024-02-26T00:28:40;3.38;;;2.00;;
54909;SDS011;63189;51.240;9.964;2024-02-26T00:31:06;3.60;;;2.30;;
54909;SDS011;63189;51.240;9.964;2024-02-26T00:33:31;2.60;;;1.85;;
54909;SDS011;63189;51.240;9.964;2024-02-26T00:35:56;3.00;;;1.92;;
54909;SDS011;63189;51.240;9.964;2024-02-26T00:38:22;2.33;;;1.65;;
54909;SDS011;63189;51.240;9.964;2024-02-26T00:40:47;2.40;;;1.70;;
54909;SDS011;63189;51.240;9.964;2024-02-26T00:43:12;2.97;;;2.03;;
54909;SDS011;63189;51.240;9.964;2024-02-26T00:45:38;3.45;;;2.05;;
54909;SDS011;63189;51.240;9.964;2024-02-26T00:48:04;3.40;;;2.10;;
54909;SDS011;63189;51.240;9.964;2024-02-26T00:50:30;1.90;;;1.48;;
54909;SDS011;63189;51.240;9.964;2024-02-26T00:52:59;2.80;;;1.42;;
54909;SDS011;63189;51.240;9.964;2024-02-26T00:55:25;3.03;;;1.65;;
54909;SDS011;63189;51.240;9.964;2024-02-26T00:57:50;3.22;;;1.50;;
54909;SDS011;63189;51.240;9.964;2024-02-26T01:00:16;2.17;;;1.40;;
54909;SDS011;63189;51.240;9.964;2024-02-26T01:02:42;1.90;;;1.35;;
54909;SDS011;63189;51.240;9.964;2024-02-26T01:05:07;1.90;;;1.40;;
54909;SDS011;63189;51.240;9.964;2024-02-26T01:07:37;2.95;;;1.50;;
54909;SDS011;63189;51.240;9.964;2024-02-26T01:10:02;2.63;;;1.75;;
54909;SDS011;63189;51.240;9.964;2024-02-26T01:12:28;2.17;;;1.42;;
54909;SDS011;63189;51.240;9.964;2024-02-26T01:14:54;2.40;;;1.63;;
54909;SDS011;63189;51.240;9.964;2024-02-26T01:17:19;2.30;;;1.30;;
54909;SDS011;63189;51.240;9.964;2024-02-26T01:19:44;2.95;;;1.70;;
54909;SDS011;63189;51.240;9.964;2024-02-26T01:22:09;1.85;;;1.30;;
54909;SDS011;63189;51.240;9.964;2024-02-26T01:24:35;2.22;;;1.63;;
54909;SDS011;63189;51.240;9.964;2024-02-26T01:27:00;4.95;;;2.15;;
54909;SDS011;63189;51.240;9.964;2024-02-26T01:29:25;3.33;;;1.90;;
54909;SDS011;63189;51.240;9.964;2024-02-26T01:31:51;4.15;;;2.10;;
54909;SDS011;63189;51.240;9.964;2024-02-26T01:34:16;5.03;;;2.92;;
54909;SDS011;63189;51.240;9.964;2024-02-26T01:36:43;6.20;;;3.17;;
54909;SDS011;63189;51.240;9.964;2024-02-26T01:39:08;6.18;;;3.10;;
54909;SDS011;63189;51.240;9.964;2024-02-26T01:41:37;5.68;;;3.53;;
54909;SDS011;63189;51.240;9.964;2024-02-26T01:44:06;5.43;;;3.17;;
54909;SDS011;63189;51.240;9.964;2024-02-26T01:46:32;5.38;;;3.33;;
54909;SDS011;63189;51.240;9.964;2024-02-26T01:48:59;5.55;;;3.00;;
54909;SDS011;63189;51.240;9.964;2024-02-26T01:51:25;3.50;;;2.20;;
54909;SDS011;63189;51.240;9.964;2024-02-26T01:53:51;2.67;;;1.98;;
54909;SDS011;63189;51.240;9.964;2024-02-26T01:56:16;2.83;;;2.03;;
54909;SDS011;63189;51.240;9.964;2024-02-26T01:58:44;2.33;;;1.73;;
54909;SDS011;63189;51.240;9.964;2024-02-26T02:01:09;2.92;;;2.20;;
54909;SDS011;63189;51.240;9.964;2024-02-26T02:03:35;3.35;;;2.30;;
54909;SDS011;63189;51.240;9.964;2024-02-26T02:06:01;3.55;;;2.40;;
54909;SDS011;63189;51.240;9.964;2024-02-26T02:08:27;4.07;;;2.20;;
54909;SDS011;63189;51.240;9.964;2024-02-26T02:10:53;3.72;;;2.10;;
54909;SDS011;63189;51.240;9.964;2024-02-26T02:13:18;2.63;;;1.92;;
54909;SDS011;63189;51.240;9.964;2024-02-26T02:15:43;2.70;;;2.05;;
54909;SDS011;63189;51.240;9.964;2024-02-26T02:18:09;2.75;;;1.77;;
54909;SDS011;63189;51.240;9.964;2024-02-26T02:20:34;2.63;;;1.83;;
54909;SDS011;63189;51.240;9.964;2024-02-26T02:23:00;2.20;;;1.67;;
54909;SDS011;63189;51.240;9.964;2024-02-26T02:25:26;2.83;;;1.90;;
54909;SDS011;63189;51.240;9.964;2024-02-26T02:27:54;3.13;;;1.58;;
54909;SDS011;63189;51.240;9.964;2024-02-26T02:30:27;2.90;;;1.73;;
54909;SDS011;63189;51.240;9.964;2024-02-26T02:32:54;2.67;;;2.10;;
54909;SDS011;63189;51.240;9.964;2024-02-26T02:35:20;2.25;;;1.67;;
54909;SDS011;63189;51.240;9.964;2024-02-26T02:37:46;2.47;;;1.77;;
54909;SDS011;63189;51.240;9.964;2024-02-26T02:40:11;2.45;;;1.58;;
54909;SDS011;63189;51.240;9.964;2024-02-26T02:42:36;3.35;;;1.95;;
54909;SDS011;63189;51.240;9.964;2024-02-26T02:45:01;2.00;;;1.65;;
54909;SDS011;63189;51.240;9.964;2024-02-26T02:47:27;2.45;;;1.50;;
54909;SDS011;63189;51.240;9.964;2024-02-26T02:49:52;3.10;;;2.00;;
54909;SDS011;63189;51.240;9.964;2024-02-26T02:52:18;3.17;;;1.92;;
54909;SDS011;63189;51.240;9.964;2024-02-26T02:54:43;2.47;;;1.65;;
54909;SDS011;63189;51.240;9.964;2024-02-26T02:57:09;4.68;;;2.20;;
54909;SDS011;63189;51.240;9.964;2024-02-26T02:59:35;3.78;;;1.70;;
54909;SDS011;63189;51.240;9.964;2024-02-26T03:02:00;3.15;;;1.83;;
54909;SDS011;63189;51.240;9.964;2024-02-26T03:04:26;2.72;;;1.70;;
54909;SDS011;63189;51.240;9.964;2024-02-26T03:06:51;2.85;;;1.65;;
54909;SDS011;63189;51.240;9.964;2024-02-26T03:09:16;2.13;;;1.38;;
54909;SDS011;63189;51.240;9.964;2024-02-26T03:11:42;3.15;;;1.90;;
54909;SDS011;63189;51.240;9.964;2024-02-26T03:14:07;2.63;;;1.85;;
54909;SDS011;63189;51.240;9.964;2024-02-26T03:16:33;3.15;;;1.80;;
54909;SDS011;63189;51.240;9.964;2024-02-26T03:18:59;7.40;;;2.70;;
54909;SDS011;63189;51.240;9.964;2024-02-26T03:21:25;3.72;;;2.00;;
54909;SDS011;63189;51.240;9.964;2024-02-26T03:23:50;3.60;;;2.22;;
54909;SDS011;63189;51.240;9.964;2024-02-26T03:26:15;2.97;;;2.17;;
54909;SDS011;63189;51.240;9.964;2024-02-26T03:28:41;3.25;;;2.17;;
54909;SDS011;63189;51.240;9.964;2024-02-26T03:31:06;3.92;;;2.17;;
54909;SDS011;63189;51.240;9.964;2024-02-26T03:33:32;3.45;;;2.13;;
54909;SDS011;63189;51.240;9.964;2024-02-26T03:35:57;3.70;;;2.30;;
54909;SDS011;63189;51.240;9.964;2024-02-26T03:38:22;3.40;;;2.25;;
54909;SDS011;63189;51.240;9.964;2024-02-26T03:40:48;3.40;;;2.40;;
54909;SDS011;63189;51.240;9.964;2024-02-26T03:43:13;3.90;;;2.72;;
54909;SDS011;63189;51.240;9.964;2024-02-26T03:45:39;4.15;;;2.50;;
54909;SDS011;63189;51.240;9.964;2024-02-26T03:48:04;3.85;;;2.80;;
54909;SDS011;63189;51.240;9.964;2024-02-26T03:50:30;4.65;;;3.20;;
54909;SDS011;63189;51.240;9.964;2024-02-26T03:52:55;4.85;;;2.58;;
54909;SDS011;63189;51.240;9.964;2024-02-26T03:55:22;4.55;;;3.00;;
54909;SDS011;63189;51.240;9.964;2024-02-26T03:57:50;4.30;;;2.75;;
54909;SDS011;63189;51.240;9.964;2024-02-26T04:00:16;4.38;;;3.05;;
54909;SDS011;63189;51.240;9.964;2024-02-26T04:02:41;5.40;;;3.22;;
54909;SDS011;63189;51.240;9.964;2024-02-26T04:05:10;5.40;;;3.22;;
54909;SDS011;63189;51.240;9.964;2024-02-26T04:07:36;4.30;;;2.95;;
54909;SDS011;63189;51.240;9.964;2024-02-26T04:10:02;4.55;;;2.85;;
54909;SDS011;63189;51.240;9.964;2024-02-26T04:12:30;5.38;;;3.40;;
54909;SDS011;63189;51.240;9.964;2024-02-26T04:14:55;5.05;;;2.72;;
54909;SDS011;63189;51.240;9.964;2024-02-26T04:17:21;5.65;;;3.20;;
54909;SDS011;63189;51.240;9.964;2024-02-26T04:19:46;5.97;;;3.50;;
54909;SDS011;63189;51.240;9.964;2024-02-26T04:22:11;5.90;;;3.50;;
54909;SDS011;63189;51.240;9.964;2024-02-26T04:24:37;6.25;;;3.80;;
54909;SDS011;63189;51.240;9.964;2024-02-26T04:27:02;6.47;;;3.83;;
54909;SDS011;63189;51.240;9.964;2024-02-26T04:29:28;5.88;;;3.80;;
54909;SDS011;63189;51.240;9.964;2024-02-26T04:31:53;4.07;;;2.90;;
54909;SDS011;63189;51.240;9.964;2024-02-26T04:34:18;6.38;;;3.63;;
54909;SDS011;63189;51.240;9.964;2024-02-26T04:36:44;4.22;;;2.70;;
54909;SDS011;63189;51.240;9.964;2024-02-26T04:39:09;4.70;;;3.22;;
54909;SDS011;63189;51.240;9.964;2024-02-26T04:41:35;9.15;;;4.90;;
54909;SDS011;63189;51.240;9.964;2024-02-26T04:44:00;6.50;;;4.30;;
54909;SDS011;63189;51.240;9.964;2024-02-26T04:46:26;7.32;;;4.93;;
54909;SDS011;63189;51.240;9.964;2024-02-26T04:48:53;7.03;;;4.90;;
54909;SDS011;63189;51.240;9.964;2024-02-26T04:51:18;7.88;;;5.32;;
54909;SDS011;63189;51.240;9.964;2024-02-26T04:53:44;7.38;;;4.53;;
54909;SDS011;63189;51.240;9.964;2024-02-26T04:56:09;6.28;;;4.30;;
54909;SDS011;63189;51.240;9.964;2024-02-26T04:58:34;6.55;;;4.47;;
54909;SDS011;63189;51.240;9.964;2024-02-26T05:01:00;5.88;;;4.43;;
54909;SDS011;63189;51.240;9.964;2024-02-26T05:03:25;5.68;;;4.22;;
54909;SDS011;63189;51.240;9.964;2024-02-26T05:05:50;4.70;;;3.60;;
54909;SDS011;63189;51.240;9.964;2024-02-26T05:08:16;5.25;;;3.92;;
54909;SDS011;63189;51.240;9.964;2024-02-26T05:10:41;5.72;;;4.28;;
54909;SDS011;63189;51.240;9.964;2024-02-26T05:13:08;6.07;;;4.18;;
54909;SDS011;63189;51.240;9.964;2024-02-26T05:15:34;5.05;;;3.72;;
54909;SDS011;63189;51.240;9.964;2024-02-26T05:18:00;4.93;;;3.85;;
54909;SDS011;63189;51.240;9.964;2024-02-26T05:20:25;5.03;;;3.40;;
54909;SDS011;63189;51.240;9.964;2024-02-26T05:22:50;6.75;;;4.57;;
54909;SDS011;63189;51.240;9.964;2024-02-26T05:25:16;5.45;;;3.75;;
54909;SDS011;63189;51.240;9.964;2024-02-26T05:27:43;5.18;;;3.50;;
54909;SDS011;63189;51.240;9.964;2024-02-26T05:30:09;5.97;;;3.75;;
54909;SDS011;63189;51.240;9.964;2024-02-26T05:32:35;4.85;;;3.63;;
54909;SDS011;63189;51.240;9.964;2024-02-26T05:35:00;8.48;;;4.57;;
54909;SDS011;63189;51.240;9.964;2024-02-26T05:37:25;8.60;;;5.93;;
54909;SDS011;63189;51.240;9.964;2024-02-26T05:39:51;12.35;;;7.30;;
54909;SDS011;63189;51.240;9.964;2024-02-26T05:42:17;12.40;;;7.88;;
54909;SDS011;63189;51.240;9.964;2024-02-26T05:44:42;11.68;;;6.90;;
54909;SDS011;63189;51.240;9.964;2024-02-26T05:47:07;13.30;;;8.38;;
54909;SDS011;63189;51.240;9.964;2024-02-26T05:49:33;12.07;;;7.88;;
54909;SDS011;63189;51.240;9.964;2024-02-26T05:51:58;13.27;;;7.97;;
54909;SDS011;63189;51.240;9.964;2024-02-26T05:54:24;11.07;;;7.18;;
54909;SDS011;63189;51.240;9.964;2024-02-26T05:56:49;11.75;;;7.05;;
54909;SDS011;63189;51.240;9.964;2024-02-26T05:59:14;11.93;;;7.70;;
54909;SDS011;63189;51.240;9.964;2024-02-26T06:01:40;13.75;;;8.45;;
54909;SDS011;63189;51.240;9.964;2024-02-26T06:04:06;13.93;;;8.52;;
54909;SDS011;63189;51.240;9.964;2024-02-26T06:06:31;13.30;;;7.78;;
54909;SDS011;63189;51.240;9.964;2024-02-26T06:08:57;10.52;;;6.50;;
54909;SDS011;63189;51.240;9.964;2024-02-26T06:11:22;11.82;;;7.63;;
54909;SDS011;63189;51.240;9.964;2024-02-26T06:13:48;12.73;;;8.38;;
54909;SDS011;63189;51.240;9.964;2024-02-26T06:16:13;10.77;;;7.25;;
54909;SDS011;63189;51.240;9.964;2024-02-26T06:18:38;14.50;;;10.48;;
54909;SDS011;63189;51.240;9.964;2024-02-26T06:21:04;14.63;;;9.20;;
54909;SDS011;63189;51.240;9.964;2024-02-26T06:23:30;13.80;;;8.93;;
54909;SDS011;63189;51.240;9.964;2024-02-26T06:25:55;13.30;;;9.07;;
54909;SDS011;63189;51.240;9.964;2024-02-26T06:28:20;13.10;;;7.78;;
54909;SDS011;63189;51.240;9.964;2024-02-26T06:30:46;16.08;;;9.40;;
54909;SDS011;63189;51.240;9.964;2024-02-26T06:33:11;13.38;;;8.07;;
54909;SDS011;63189;51.240;9.964;2024-02-26T06:35:37;11.38;;;7.70;;
54909;SDS011;63189;51.240;9.964;2024-02-26T06:38:03;15.68;;;10.38;;
54909;SDS011;63189;51.240;9.964;2024-02-26T06:40:29;17.60;;;10.07;;
54909;SDS011;63189;51.240;9.964;2024-02-26T06:42:54;15.50;;;9.43;;
54909;SDS011;63189;51.240;9.964;2024-02-26T06:45:20;14.65;;;9.07;;
54909;SDS011;63189;51.240;9.964;2024-02-26T06:47:45;18.35;;;9.98;;
54909;SDS011;63189;51.240;9.964;2024-02-26T06:50:11;13.43;;;8.38;;
54909;SDS011;63189;51.240;9.964;2024-02-26T06:52:38;14.90;;;8.50;;
54909;SDS011;63189;51.240;9.964;2024-02-26T06:55:04;11.70;;;7.22;;
54909;SDS011;63189;51.240;9.964;2024-02-26T06:57:30;14.88;;;8.30;;
54909;SDS011;63189;51.240;9.964;2024-02-26T06:59:55;10.20;;;6.78;;
54909;SDS011;63189;51.240;9.964;2024-02-26T07:02:21;13.57;;;7.97;;
54909;SDS011;63189;51.240;9.964;2024-02-26T07:04:46;12.13;;;8.02;;
54909;SDS011;63189;51.240;9.964;2024-02-26T07:07:11;14.23;;;9.07;;
54909;SDS011;63189;51.240;9.964;2024-02-26T07:09:36;17.00;;;9.32;;
54909;SDS011;63189;51.240;9.964;2024-02-26T07:12:02;14.55;;;9.77;;
54909;SDS011;63189;51.240;9.964;2024-02-26T07:14:28;15.95;;;10.52;;
54909;SDS011;63189;51.240;9.964;2024-02-26T07:16:53;15.68;;;9.73;;
54909;SDS011;63189;51.240;9.964;2024-02-26T07:19:18;15.90;;;9.52;;
54909;SDS011;63189;51.240;9.964;2024-02-26T07:21:44;14.35;;;8.65;;
54909;SDS011;63189;51.240;9.964;2024-02-26T07:24:09;15.05;;;9.48;;
54909;SDS011;63189;51.240;9.964;2024-02-26T07:26:34;20.20;;;11.57;;
54909;SDS011;63189;51.240;9.964;2024-02-26T07:29:00;19.80;;;12.00;;
54909;SDS011;63189;51.240;9.964;2024-02-26T07:31:26;23.10;;;12.40;;
54909;SDS011;63189;51.240;9.964;2024-02-26T07:33:51;22.30;;;12.27;;
54909;SDS011;63189;51.240;9.964;2024-02-26T07:36:16;19.25;;;11.65;;
54909;SDS011;63189;51.240;9.964;2024-02-26T07:38:42;18.73;;;11.57;;
54909;SDS011;63189;51.240;9.964;2024-02-26T07:41:07;23.92;;;14.07;;
54909;SDS011;63189;51.240;9.964;2024-02-26T07:43:33;21.42;;;13.45;;
54909;SDS011;63189;51.240;9.964;2024-02-26T07:45:58;22.85;;;13.93;;
54909;SDS011;63189;51.240;9.964;2024-02-26T07:48:24;23.00;;;13.38;;
54909;SDS011;63189;51.240;9.964;2024-02-26T07:50:49;22.20;;;14.38;;
54909;SDS011;63189;51.240;9.964;2024-02-26T07:53:15;20.23;;;12.60;;
54909;SDS011;63189;51.240;9.964;2024-02-26T07:55:40;18.10;;;12.18;;
54909;SDS011;63189;51.240;9.964;2024-02-26T07:58:05;19.50;;;12.20;;
54909;SDS011;63189;51.240;9.964;2024-02-26T08:00:31;18.55;;;11.32;;
54909;SDS011;63189;51.240;9.964;2024-02-26T08:02:56;17.15;;;10.57;;
54909;SDS011;63189;51.240;9.964;2024-02-26T08:05:22;19.77;;;11.32;;
54909;SDS011;63189;51.240;9.964;2024-02-26T08:07:47;22.30;;;12.63;;
54909;SDS011;63189;51.240;9.964;2024-02-26T08:10:12;18.52;;;11.60;;
54909;SDS011;63189;51.240;9.964;2024-02-26T08:12:38;20.30;;;12.38;;
54909;SDS011;63189;51.240;9.964;2024-02-26T08:15:03;17.17;;;10.93;;
54909;SDS011;63189;51.240;9.964;2024-02-26T08:17:29;18.85;;;11.55;;
54909;SDS011;63189;51.240;9.964;2024-02-26T08:19:55;19.23;;;12.50;;
54909;SDS011;63189;51.240;9.964;2024-02-26T08:22:22;15.95;;;10.50;;
54909;SDS011;63189;51.240;9.964;2024-02-26T08:24:47;16.75;;;10.48;;
54909;SDS011;63189;51.240;9.964;2024-02-26T08:27:12;20.50;;;12.35;;
54909;SDS011;63189;51.240;9.964;2024-02-26T08:29:38;18.48;;;11.75;;
54909;SDS011;63189;51.240;9.964;2024-02-26T08:32:03;17.70;;;11.25;;
54909;SDS011;63189;51.240;9.964;2024-02-26T08:34:29;19.17;;;11.73;;
54909;SDS011;63189;51.240;9.964;2024-02-26T08:36:54;17.35;;;11.50;;
54909;SDS011;63189;51.240;9.964;2024-02-26T08:39:20;17.58;;;11.55;;
54909;SDS011;63189;51.240;9.964;2024-02-26T08:41:45;17.70;;;11.50;;
54909;SDS011;63189;51.240;9.964;2024-02-26T08:44:11;20.88;;;12.85;;
54909;SDS011;63189;51.240;9.964;2024-02-26T08:46:36;19.35;;;11.90;;
54909;SDS011;63189;51.240;9.964;2024-02-26T08:49:02;17.60;;;11.25;;
54909;SDS011;63189;51.240;9.964;2024-02-26T08:51:28;19.65;;;11.70;;
54909;SDS011;63189;51.240;9.964;2024-02-26T08:53:54;19.98;;;12.18;;
54909;SDS011;63189;51.240;9.964;2024-02-26T08:56:19;19.88;;;12.13;;
54909;SDS011;63189;51.240;9.964;2024-02-26T08:58:46;20.38;;;12.90;;
54909;SDS011;63189;51.240;9.964;2024-02-26T09:01:14;20.00;;;12.90;;
54909;SDS011;63189;51.240;9.964;2024-02-26T09:03:39;18.48;;;12.18;;
54909;SDS011;63189;51.240;9.964;2024-02-26T09:06:05;20.58;;;12.32;;
54909;SDS011;63189;51.240;9.964;2024-02-26T09:08:31;18.33;;;12.40;;
54909;SDS011;63189;51.240;9.964;2024-02-26T09:10:57;19.63;;;12.93;;
54909;SDS011;63189;51.240;9.964;2024-02-26T09:13:22;17.95;;;11.82;;
54909;SDS011;63189;51.240;9.964;2024-02-26T09:15:48;18.88;;;12.70;;
54909;SDS011;63189;51.240;9.964;2024-02-26T09:18:14;21.05;;;12.32;;
54909;SDS011;63189;51.240;9.964;2024-02-26T09:20:40;20.58;;;13.25;;
54909;SDS011;63189;51.240;9.964;2024-02-26T09:23:05;18.95;;;12.27;;
54909;SDS011;63189;51.240;9.964;2024-02-26T09:25:30;20.25;;;12.63;;
54909;SDS011;63189;51.240;9.964;2024-02-26T09:27:56;20.38;;;13.38;;
54909;SDS011;63189;51.240;9.964;2024-02-26T09:30:21;20.05;;;12.55;;
54909;SDS011;63189;51.240;9.964;2024-02-26T09:32:46;17.83;;;11.35;;
54909;SDS011;63189;51.240;9.964;2024-02-26T09:35:13;18.25;;;11.38;;
54909;SDS011;63189;51.240;9.964;2024-02-26T09:37:38;20.05;;;12.38;;
54909;SDS011;63189;51.240;9.964;2024-02-26T09:40:04;22.75;;;13.93;;
54909;SDS011;63189;51.240;9.964;2024-02-26T09:42:31;20.05;;;12.20;;
54909;SDS011;63189;51.240;9.964;2024-02-26T09:45:00;22.10;;;12.55;;
54909;SDS011;63189;51.240;9.964;2024-02-26T09:47:32;20.23;;;12.30;;
54909;SDS011;63189;51.240;9.964;2024-02-26T09:49:58;18.85;;;11.13;;
54909;SDS011;63189;51.240;9.964;2024-02-26T09:52:26;17.60;;;11.80;;
54909;SDS011;63189;51.240;9.964;2024-02-26T09:54:56;15.73;;;9.75;;
54909;SDS011;63189;51.240;9.964;2024-02-26T09:57:21;17.70;;;10.85;;
54909;SDS011;63189;51.240;9.964;2024-02-26T09:59:49;17.58;;;10.27;;
54909;SDS011;63189;51.240;9.964;2024-02-26T10:02:18;16.23;;;10.98;;
54909;SDS011;63189;51.240;9.964;2024-02-26T10:04:46;18.42;;;11.23;;
54909;SDS011;63189;51.240;9.964;2024-02-26T10:07:13;18.10;;;10.07;;
54909;SDS011;63189;51.240;9.964;2024-02-26T10:09:39;17.92;;;10.38;;
54909;SDS011;63189;51.240;9.964;2024-02-26T10:12:05;17.25;;;10.63;;
54909;SDS011;63189;51.240;9.964;2024-02-26T10:14:33;15.45;;;8.68;;
54909;SDS011;63189;51.240;9.964;2024-02-26T10:16:59;15.93;;;9.93;;
54909;SDS011;63189;51.240;9.964;2024-02-26T10:19:29;19.00;;;11.23;;
54909;SDS011;63189;51.240;9.964;2024-02-26T10:21:58;15.02;;;9.50;;
54909;SDS011;63189;51.240;9.964;2024-02-26T10:24:25;14.57;;;9.25;;
54909;SDS011;63189;51.240;9.964;2024-02-26T10:26:51;13.60;;;9.20;;
54909;SDS011;63189;51.240;9.964;2024-02-26T10:29:18;19.77;;;10.23;;
54909;SDS011;63189;51.240;9.964;2024-02-26T10:31:44;18.20;;;11.13;;
54909;SDS011;63189;51.240;9.964;2024-02-26T10:34:10;19.00;;;11.00;;
54909;SDS011;63189;51.240;9.964;2024-02-26T10:36:35;17.35;;;10.80;;
54909;SDS011;63189;51.240;9.964;2024-02-26T10:39:02;16.63;;;10.02;;
54909;SDS011;63189;51.240;9.964;2024-02-26T10:41:29;15.05;;;9.32;;
54909;SDS011;63189;51.240;9.964;2024-02-26T10:43:55;18.85;;;9.73;;
54909;SDS011;63189;51.240;9.964;2024-02-26T10:46:20;16.75;;;10.60;;
54909;SDS011;63189;51.240;9.964;2024-02-26T10:48:52;13.38;;;8.88;;
54909;SDS011;63189;51.240;9.964;2024-02-26T10:51:29;16.48;;;10.95;;
54909;SDS011;63189;51.240;9.964;2024-02-26T10:53:56;14.73;;;9.98;;
54909;SDS011;63189;51.240;9.964;2024-02-26T10:56:24;14.27;;;9.02;;
54909;SDS011;63189;51.240;9.964;2024-02-26T10:58:52;15.63;;;9.57;;
54909;SDS011;63189;51.240;9.964;2024-02-26T11:01:19;14.45;;;10.05;;
54909;SDS011;63189;51.240;9.964;2024-02-26T11:03:46;16.73;;;10.75;;
54909;SDS011;63189;51.240;9.964;2024-02-26T11:06:15;14.43;;;9.70;;
54909;SDS011;63189;51.240;9.964;2024-02-26T11:08:40;15.15;;;9.80;;
54909;SDS011;63189;51.240;9.964;2024-02-26T11:11:06;18.58;;;10.02;;
54909;SDS011;63189;51.240;9.964;2024-02-26T11:13:32;15.80;;;10.15;;
54909;SDS011;63189;51.240;9.964;2024-02-26T11:15:58;16.38;;;10.23;;
54909;SDS011;63189;51.240;9.964;2024-02-26T11:18:26;14.93;;;9.68;;
54909;SDS011;63189;51.240;9.964;2024-02-26T11:20:52;16.45;;;10.20;;
54909;SDS011;63189;51.240;9.964;2024-02-26T11:23:22;15.73;;;10.85;;
54909;SDS011;63189;51.240;9.964;2024-02-26T11:25:48;16.80;;;10.90;;
54909;SDS011;63189;51.240;9.964;2024-02-26T11:28:16;18.40;;;11.02;;
54909;SDS011;63189;51.240;9.964;2024-02-26T11:30:45;16.70;;;10.65;;
54909;SDS011;63189;51.240;9.964;2024-02-26T11:33:13;19.40;;;11.82;;
54909;SDS011;63189;51.240;9.964;2024-02-26T11:35:40;17.33;;;10.82;;
54909;SDS011;63189;51.240;9.964;2024-02-26T11:38:05;16.10;;;10.80;;
54909;SDS011;63189;51.240;9.964;2024-02-26T11:40:32;13.70;;;9.40;;
54909;SDS011;63189;51.240;9.964;2024-02-26T11:42:59;16.45;;;11.00;;
54909;SDS011;63189;51.240;9.964;2024-02-26T11:48:15;13.65;;;9.60;;
54909;SDS011;63189;51.240;9.964;2024-02-26T11:50:53;14.77;;;9.95;;
54909;SDS011;63189;51.240;9.964;2024-02-26T11:53:24;17.10;;;11.57;;
54909;SDS011;63189;51.240;9.964;2024-02-26T11:58:39;17.02;;;11.07;;
54909;SDS011;63189;51.240;9.964;2024-02-26T12:01:05;13.93;;;8.93;;
54909;SDS011;63189;51.240;9.964;2024-02-26T12:03:31;14.43;;;10.35;;
54909;SDS011;63189;51.240;9.964;2024-02-26T12:05:56;12.15;;;8.55;;
54909;SDS011;63189;51.240;9.964;2024-02-26T12:08:22;14.35;;;9.15;;
54909;SDS011;63189;51.240;9.964;2024-02-26T12:10:48;16.63;;;9.57;;
54909;SDS011;63189;51.240;9.964;2024-02-26T12:13:17;12.82;;;8.90;;
54909;SDS011;63189;51.240;9.964;2024-02-26T12:18:19;17.98;;;11.50;;
54909;SDS011;63189;51.240;9.964;2024-02-26T12:20:46;15.88;;;11.40;;
54909;SDS011;63189;51.240;9.964;2024-02-26T12:23:15;16.17;;;10.15;;
54909;SDS011;63189;51.240;9.964;2024-02-26T12:25:44;19.42;;;11.13;;
54909;SDS011;63189;51.240;9.964;2024-02-26T12:28:09;16.08;;;10.60;;
54909;SDS011;63189;51.240;9.964;2024-02-26T12:30:35;15.40;;;10.50;;
54909;SDS011;63189;51.240;9.964;2024-02-26T12:33:00;13.98;;;9.63;;
54909;SDS011;63189;51.240;9.964;2024-02-26T12:35:27;15.57;;;9.60;;
54909;SDS011;63189;51.240;9.964;2024-02-26T12:37:53;14.30;;;8.90;;
54909;SDS011;63189;51.240;9.964;2024-02-26T12:40:19;14.27;;;8.85;;
54909;SDS011;63189;51.240;9.964;2024-02-26T12:42:45;14.88;;;9.98;;
54909;SDS011;63189;51.240;9.964;2024-02-26T12:45:11;16.42;;;9.65;;
54909;SDS011;63189;51.240;9.964;2024-02-26T12:47:38;14.68;;;9.35;;
54909;SDS011;63189;51.240;9.964;2024-02-26T12:50:04;16.17;;;10.93;;
54909;SDS011;63189;51.240;9.964;2024-02-26T12:52:33;17.15;;;10.45;;
54909;SDS011;63189;51.240;9.964;2024-02-26T12:55:01;14.60;;;9.63;;
54909;SDS011;63189;51.240;9.964;2024-02-26T12:57:31;15.57;;;10.63;;
54909;SDS011;63189;51.240;9.964;2024-02-26T12:59:58;13.63;;;8.68;;
54909;SDS011;63189;51.240;9.964;2024-02-26T13:02:25;15.55;;;10.25;;
54909;SDS011;63189;51.240;9.964;2024-02-26T13:04:50;17.73;;;9.60;;
54909;SDS011;63189;51.240;9.964;2024-02-26T13:07:16;15.15;;;9.38;;
54909;SDS011;63189;51.240;9.964;2024-02-26T13:09:42;15.95;;;10.88;;
54909;SDS011;63189;51.240;9.964;2024-02-26T13:12:07;17.45;;;10.57;;
54909;SDS011;63189;51.240;9.964;2024-02-26T13:14:33;14.32;;;9.82;;
54909;SDS011;63189;51.240;9.964;2024-02-26T13:16:59;17.00;;;10.05;;
54909;SDS011;63189;51.240;9.964;2024-02-26T13:19:25;13.10;;;9.40;;
54909;SDS011;63189;51.240;9.964;2024-02-26T13:21:51;14.80;;;9.55;;
54909;SDS011;63189;51.240;9.964;2024-02-26T13:24:16;15.02;;;9.85;;
54909;SDS011;63189;51.240;9.964;2024-02-26T13:26:43;12.63;;;9.15;;
54909;SDS011;63189;51.240;9.964;2024-02-26T13:29:08;13.68;;;9.30;;
54909;SDS011;63189;51.240;9.964;2024-02-26T13:31:39;17.63;;;11.57;;
54909;SDS011;63189;51.240;9.964;2024-02-26T13:34:05;14.85;;;9.38;;
54909;SDS011;63189;51.240;9.964;2024-02-26T13:36:30;11.85;;;8.18;;
54909;SDS011;63189;51.240;9.964;2024-02-26T13:38:56;13.48;;;8.88;;
54909;SDS011;63189;51.240;9.964;2024-02-26T13:41:21;13.98;;;9.25;;
54909;SDS011;63189;51.240;9.964;2024-02-26T13:43:47;14.05;;;9.60;;
54909;SDS011;63189;51.240;9.964;2024-02-26T13:46:13;12.95;;;8.48;;
54909;SDS011;63189;51.240;9.964;2024-02-26T13:48:40;13.60;;;8.82;;
54909;SDS011;63189;51.240;9.964;2024-02-26T13:51:06;14.10;;;8.90;;
54909;SDS011;63189;51.240;9.964;2024-02-26T13:53:32;12.90;;;8.65;;
54909;SDS011;63189;51.240;9.964;2024-02-26T13:55:57;13.57;;;9.05;;
54909;SDS011;63189;51.240;9.964;2024-02-26T13:58:23;14.45;;;9.88;;
54909;SDS011;63189;51.240;9.964;2024-02-26T14:00:50;15.95;;;10.73;;
54909;SDS011;63189;51.240;9.964;2024-02-26T14:03:15;21.38;;;12.77;;
54909;SDS011;63189;51.240;9.964;2024-02-26T14:05:41;14.77;;;9.40;;
54909;SDS011;63189;51.240;9.964;2024-02-26T14:08:07;26.08;;;13.98;;
54909;SDS011;63189;51.240;9.964;2024-02-26T14:10:32;15.07;;;10.18;;
54909;SDS011;63189;51.240;9.964;2024-02-26T14:12:58;19.60;;;11.43;;
54909;SDS011;63189;51.240;9.964;2024-02-26T14:15:27;23.05;;;13.73;;
54909;SDS011;63189;51.240;9.964;2024-02-26T14:17:53;13.63;;;9.90;;
54909;SDS011;63189;51.240;9.964;2024-02-26T14:20:22;16.40;;;10.63;;
54909;SDS011;63189;51.240;9.964;2024-02-26T14:22:51;18.05;;;12.50;;
54909;SDS011;63189;51.240;9.964;2024-02-26T14:25:18;15.88;;;11.55;;
54909;SDS011;63189;51.240;9.964;2024-02-26T14:27:45;12.70;;;8.75;;
54909;SDS011;63189;51.240;9.964;2024-02-26T14:30:11;13.50;;;9.50;;
54909;SDS011;63189;51.240;9.964;2024-02-26T14:32:37;10.75;;;7.45;;
54909;SDS011;63189;51.240;9.964;2024-02-26T14:35:03;13.75;;;9.57;;
54909;SDS011;63189;51.240;9.964;2024-02-26T14:37:31;18.15;;;10.55;;